createdAt,value
2023-04-16T00:01:59.731Z,100719.66
2023-04-16T00:04:26.535Z,100726.38
2023-04-16T00:06:53.100Z,100716.47
2023-04-16T00:09:19.812Z,100722.81
2023-04-16T00:11:46.331Z,100721.44
2023-04-16T00:14:12.945Z,100732.56
2023-04-16T00:16:39.619Z,100729.28
2023-04-16T00:19:07.221Z,100731.88
2023-04-16T00:21:33.820Z,100727.53
2023-04-16T00:24:00.375Z,100727.53
2023-04-16T00:26:32.303Z,100724.19
2023-04-16T00:28:59.839Z,100721.78
2023-04-16T00:31:30.931Z,100725.28
2023-04-16T00:33:57.999Z,100725.00
2023-04-16T00:36:25.007Z,100730.16
2023-04-16T00:38:51.736Z,100713.59
2023-04-16T00:41:18.316Z,100723.28
2023-04-16T00:43:44.952Z,100726.72
2023-04-16T00:46:14.186Z,100725.34
2023-04-16T00:48:41.577Z,100725.34
2023-04-16T00:51:08.979Z,100727.75
2023-04-16T00:53:35.839Z,100734.94
2023-04-16T00:56:06.278Z,100723.94
2023-04-16T00:58:34.819Z,100730.63
2023-04-16T01:01:01.723Z,100728.25
2023-04-16T01:03:44.923Z,100733.59
2023-04-16T01:06:12.052Z,100742.69
2023-04-16T01:08:38.860Z,100741.53
2023-04-16T01:11:05.709Z,100742.03
2023-04-16T01:13:32.725Z,100751.56
2023-04-16T01:15:59.651Z,100750.53
2023-04-16T01:18:29.095Z,100761.97
2023-04-16T01:20:59.052Z,100759.00
2023-04-16T01:23:28.774Z,100763.38
2023-04-16T01:25:58.184Z,100756.09
2023-04-16T01:28:25.426Z,100768.75
2023-04-16T01:30:52.036Z,100768.47
2023-04-16T01:33:37.006Z,100763.88
2023-04-16T01:36:03.885Z,100766.16
2023-04-16T01:38:30.484Z,100770.31
2023-04-16T01:40:59.502Z,100772.69
2023-04-16T01:43:26.132Z,100773.22
2023-04-16T01:46:09.713Z,100775.66
2023-04-16T01:48:36.412Z,100780.44
2023-04-16T01:51:04.941Z,100776.25
2023-04-16T01:53:31.602Z,100783.63
2023-04-16T01:55:58.151Z,100783.84
2023-04-16T01:58:27.113Z,100783.97
2023-04-16T02:00:53.755Z,100782.81
2023-04-16T02:03:20.519Z,100773.81
2023-04-16T02:05:47.521Z,100788.09
2023-04-16T02:08:14.072Z,100773.50
2023-04-16T02:10:40.624Z,100779.91
2023-04-16T02:13:08.148Z,100780.59
2023-04-16T02:15:34.709Z,100785.38
2023-04-16T02:18:03.725Z,100782.72
2023-04-16T02:20:30.939Z,100782.50
2023-04-16T02:22:59.867Z,100775.38
2023-04-16T02:25:29.866Z,100778.34
2023-04-16T02:27:57.767Z,100780.41
2023-04-16T02:30:38.111Z,100782.81
2023-04-16T02:33:10.047Z,100776.94
2023-04-16T02:35:43.416Z,100788.00
2023-04-16T02:38:12.073Z,100781.38
2023-04-16T02:40:38.690Z,100786.69
2023-04-16T02:43:05.384Z,100788.16
2023-04-16T02:45:32.831Z,100790.47
2023-04-16T02:47:59.997Z,100795.75
2023-04-16T02:50:26.689Z,100800.78
2023-04-16T02:52:53.413Z,100791.34
2023-04-16T02:55:22.831Z,100802.41
2023-04-16T02:57:49.522Z,100805.44
2023-04-16T03:00:16.429Z,100800.44
2023-04-16T03:02:45.668Z,100806.84
2023-04-16T03:05:12.643Z,100808.28
2023-04-16T03:07:40.733Z,100795.22
2023-04-16T03:10:07.847Z,100801.63
2023-04-16T03:12:34.890Z,100800.78
2023-04-16T03:15:01.529Z,100807.09
2023-04-16T03:17:28.217Z,100796.03
2023-04-16T03:19:55.668Z,100805.25
2023-04-16T03:22:22.366Z,100817.81
2023-04-16T03:24:48.899Z,100819.25
2023-04-16T03:27:15.549Z,100812.84
2023-04-16T03:29:42.136Z,100809.97
2023-04-16T03:32:09.466Z,100815.25
2023-04-16T03:34:37.144Z,100824.06
2023-04-16T03:37:06.592Z,100818.34
2023-04-16T03:39:34.179Z,100815.50
2023-04-16T03:42:01.992Z,100830.19
2023-04-16T03:44:30.444Z,100822.34
2023-04-16T03:46:57.267Z,100826.81
2023-04-16T03:49:23.848Z,100833.94
2023-04-16T03:51:53.338Z,100821.47
2023-04-16T03:54:23.428Z,100827.16
2023-04-16T03:56:59.690Z,100829.63
2023-04-16T03:59:26.333Z,100834.06
2023-04-16T04:01:52.999Z,100839.13
2023-04-16T04:04:19.918Z,100840.47
2023-04-16T04:06:47.162Z,100836.53
2023-04-16T04:09:14.135Z,100841.47
2023-04-16T04:11:42.960Z,100840.97
2023-04-16T04:14:09.597Z,100831.53
2023-04-16T04:16:36.310Z,100846.69
2023-04-16T04:19:03.195Z,100848.53
2023-04-16T04:21:29.854Z,100848.09
2023-04-16T04:23:57.030Z,100851.47
2023-04-16T04:26:23.764Z,100854.25
2023-04-16T04:28:52.971Z,100856.97
2023-04-16T04:31:22.014Z,100857.75
2023-04-16T04:33:48.647Z,100861.56
2023-04-16T04:36:15.530Z,100861.00
2023-04-16T04:38:42.249Z,100861.06
2023-04-16T04:41:08.896Z,100866.59
2023-04-16T04:43:40.737Z,100865.59
2023-04-16T04:46:07.508Z,100868.94
2023-04-16T04:48:39.843Z,100876.72
2023-04-16T04:51:06.573Z,100875.41
2023-04-16T04:53:33.202Z,100883.78
2023-04-16T04:56:09.232Z,100888.28
2023-04-16T04:58:39.380Z,100887.63
2023-04-16T05:01:06.259Z,100894.81
2023-04-16T05:03:33.072Z,100892.13
2023-04-16T05:06:02.383Z,100894.72
2023-04-16T05:08:28.934Z,100895.84
2023-04-16T05:10:56.443Z,100885.63
2023-04-16T05:13:23.106Z,100887.69
2023-04-16T05:15:49.689Z,100883.78
2023-04-16T05:18:16.363Z,100894.44
2023-04-16T05:20:42.899Z,100900.84
2023-04-16T05:23:09.464Z,100903.25
2023-04-16T05:25:36.216Z,100903.94
2023-04-16T05:28:02.778Z,100907.53
2023-04-16T05:30:29.428Z,100904.72
2023-04-16T05:32:58.384Z,100903.19
2023-04-16T05:35:24.916Z,100905.03
2023-04-16T05:37:51.532Z,100912.81
2023-04-16T05:40:18.198Z,100914.28
2023-04-16T05:42:44.814Z,100912.38
2023-04-16T05:45:11.504Z,100920.38
2023-04-16T05:47:38.181Z,100916.88
2023-04-16T05:50:07.310Z,100920.28
2023-04-16T05:52:44.403Z,100932.72
2023-04-16T05:55:13.340Z,100936.09
2023-04-16T05:57:39.938Z,100925.47
2023-04-16T06:00:06.960Z,100930.13
2023-04-16T06:02:40.854Z,100939.22
2023-04-16T06:05:07.835Z,100936.84
2023-04-16T06:07:34.386Z,100933.38
2023-04-16T06:10:01.573Z,100940.84
2023-04-16T06:12:28.142Z,100942.13
2023-04-16T06:14:54.913Z,100940.97
2023-04-16T06:17:22.739Z,100941.38
2023-04-16T06:19:49.393Z,100940.38
2023-04-16T06:22:16.191Z,100948.81
2023-04-16T06:24:42.785Z,100937.03
2023-04-16T06:27:20.722Z,100949.78
2023-04-16T06:29:47.281Z,100952.25
2023-04-16T06:32:13.857Z,100953.25
2023-04-16T06:34:40.759Z,100951.00
2023-04-16T06:37:10.392Z,100962.63
2023-04-16T06:39:37.375Z,100959.03
2023-04-16T06:42:04.213Z,100959.78
2023-04-16T06:44:30.808Z,100972.28
2023-04-16T06:46:58.293Z,100977.47
2023-04-16T06:49:24.987Z,100980.09
2023-04-16T06:51:51.501Z,100972.50
2023-04-16T06:54:19.772Z,100976.06
2023-04-16T06:56:46.396Z,100976.78
2023-04-16T06:59:13.016Z,100973.34
2023-04-16T07:01:39.586Z,100975.47
2023-04-16T07:04:08.427Z,100979.16
2023-04-16T07:06:35.222Z,100976.91
2023-04-16T07:09:01.842Z,100974.69
2023-04-16T07:11:28.884Z,100985.50
2023-04-16T07:13:55.494Z,100988.03
2023-04-16T07:16:22.138Z,100984.53
2023-04-16T07:18:51.064Z,100990.81
2023-04-16T07:21:17.698Z,100988.06
2023-04-16T07:23:44.275Z,100990.50
2023-04-16T07:26:11.934Z,100997.53
2023-04-16T07:28:38.555Z,101000.81
2023-04-16T07:31:05.345Z,101010.09
2023-04-16T07:33:31.917Z,101006.19
2023-04-16T07:35:58.477Z,101007.22
2023-04-16T07:38:30.426Z,101005.47
2023-04-16T07:40:57.063Z,101006.28
2023-04-16T07:43:23.608Z,101012.47
2023-04-16T07:45:50.250Z,101017.31
2023-04-16T07:48:16.777Z,101017.44
2023-04-16T07:50:43.693Z,101026.31
2023-04-16T07:53:17.585Z,101019.75
2023-04-16T07:55:44.198Z,101022.50
2023-04-16T07:58:13.576Z,101026.06
2023-04-16T08:00:42.347Z,101023.13
2023-04-16T08:03:11.491Z,101021.22
2023-04-16T08:05:38.169Z,101033.63
2023-04-16T08:08:04.900Z,101038.16
2023-04-16T08:10:31.538Z,101037.06
2023-04-16T08:13:00.093Z,101041.63
2023-04-16T08:15:26.718Z,101048.53
2023-04-16T08:17:53.456Z,101044.03
2023-04-16T08:20:20.296Z,101052.84
2023-04-16T08:22:46.885Z,101052.22
2023-04-16T08:25:14.434Z,101056.09
2023-04-16T08:27:41.101Z,101062.69
2023-04-16T08:30:08.339Z,101069.00
2023-04-16T08:32:34.923Z,101063.19
2023-04-16T08:35:01.587Z,101069.50
2023-04-16T08:37:28.259Z,101070.91
2023-04-16T08:39:54.839Z,101078.28
2023-04-16T08:42:32.553Z,101080.06
2023-04-16T08:45:13.432Z,101083.19
2023-04-16T08:47:49.954Z,101077.75
2023-04-16T08:50:20.268Z,101081.41
2023-04-16T08:52:51.436Z,101089.97
2023-04-16T08:55:20.603Z,101085.41
2023-04-16T08:57:58.085Z,101087.84
2023-04-16T09:00:24.818Z,101092.22
2023-04-16T09:02:52.187Z,101086.13
2023-04-16T09:05:25.612Z,101093.09
2023-04-16T09:07:52.834Z,101095.25
2023-04-16T09:10:19.936Z,101091.31
2023-04-16T09:12:46.626Z,101096.31
2023-04-16T09:15:13.990Z,101100.47
2023-04-16T09:17:43.787Z,101091.59
2023-04-16T09:20:11.164Z,101094.53
2023-04-16T09:22:38.271Z,101101.13
2023-04-16T09:25:05.033Z,101102.88
2023-04-16T09:27:32.033Z,101106.06
2023-04-16T09:29:58.695Z,101106.88
2023-04-16T09:32:27.323Z,101101.06
2023-04-16T09:34:57.256Z,101112.22
2023-04-16T09:37:24.648Z,101114.19
2023-04-16T09:39:58.502Z,101114.97
2023-04-16T09:42:45.654Z,101115.66
2023-04-16T09:45:13.755Z,101115.91
2023-04-16T09:47:41.656Z,101111.09
2023-04-16T09:50:10.585Z,101117.63
2023-04-16T09:52:38.987Z,101129.22
2023-04-16T09:55:06.006Z,101128.56
2023-04-16T09:57:32.608Z,101127.94
2023-04-16T10:00:04.091Z,101131.41
2023-04-16T10:02:31.752Z,101127.03
2023-04-16T10:05:00.822Z,101141.63
2023-04-16T10:07:34.469Z,101136.22
2023-04-16T10:10:01.362Z,101142.47
2023-04-16T10:12:28.885Z,101140.25
2023-04-16T10:14:55.648Z,101142.72
2023-04-16T10:17:24.014Z,101141.63
2023-04-16T10:19:59.975Z,101142.53
2023-04-16T10:22:29.761Z,101155.91
2023-04-16T10:25:01.828Z,101149.97
2023-04-16T10:27:29.010Z,101146.53
2023-04-16T10:29:56.724Z,101142.47
2023-04-16T10:32:28.715Z,101147.41
2023-04-16T10:34:55.846Z,101151.63
2023-04-16T10:37:32.172Z,101150.84
2023-04-16T10:39:59.939Z,101152.56
2023-04-16T10:42:27.551Z,101152.13
2023-04-16T10:45:00.009Z,101150.94
2023-04-16T10:47:29.504Z,101152.41
2023-04-16T10:49:56.194Z,101148.31
2023-04-16T10:52:25.028Z,101159.38
2023-04-16T10:54:52.716Z,101149.69
2023-04-16T10:57:20.590Z,101157.75
2023-04-16T10:59:48.778Z,101157.44
2023-04-16T11:02:17.903Z,101151.25
2023-04-16T11:04:49.001Z,101157.56
2023-04-16T11:07:18.017Z,101159.72
2023-04-16T11:09:51.128Z,101160.50
2023-04-16T11:12:19.052Z,101163.28
2023-04-16T11:14:49.789Z,101163.63
2023-04-16T11:17:21.597Z,101160.28
2023-04-16T11:19:48.547Z,101153.31
2023-04-16T11:22:17.307Z,101163.06
2023-04-16T11:24:44.704Z,101161.56
2023-04-16T11:27:14.631Z,101164.91
2023-04-16T11:29:41.732Z,101168.69
2023-04-16T11:32:08.557Z,101157.09
2023-04-16T11:34:35.223Z,101169.50
2023-04-16T11:37:01.847Z,101161.53
2023-04-16T11:39:28.518Z,101164.03
2023-04-16T11:41:56.050Z,101171.94
2023-04-16T11:44:27.455Z,101172.84
2023-04-16T11:46:54.481Z,101166.72
2023-04-16T11:49:30.830Z,101165.25
2023-04-16T11:52:00.400Z,101167.31
2023-04-16T11:54:29.170Z,101170.66
2023-04-16T11:56:55.768Z,101173.13
2023-04-16T11:59:23.540Z,101177.53
2023-04-16T12:01:51.304Z,101168.09
2023-04-16T12:04:27.292Z,101177.16
2023-04-16T12:07:10.509Z,101168.78
2023-04-16T12:09:40.148Z,101172.03
2023-04-16T12:12:30.577Z,101177.03
2023-04-16T12:15:00.165Z,101176.97
2023-04-16T12:17:26.951Z,101178.03
2023-04-16T12:19:57.982Z,101176.63
2023-04-16T12:22:31.371Z,101174.94
2023-04-16T12:25:03.221Z,101176.78
2023-04-16T12:27:45.573Z,101165.34
2023-04-16T12:30:13.560Z,101175.28
2023-04-16T12:32:41.348Z,101170.81
2023-04-16T12:35:09.379Z,101172.91
2023-04-16T12:37:36.012Z,101172.16
2023-04-16T12:40:02.839Z,101177.72
2023-04-16T12:42:35.611Z,101179.28
2023-04-16T12:45:04.872Z,101180.06
2023-04-16T12:47:31.922Z,101178.78
2023-04-16T12:49:59.271Z,101173.03
2023-04-16T12:52:25.968Z,101173.78
2023-04-16T12:54:53.181Z,101173.22
2023-04-16T12:57:19.799Z,101172.78
2023-04-16T12:59:47.136Z,101180.88
2023-04-16T13:02:13.846Z,101174.38
2023-04-16T13:04:41.147Z,101176.94
2023-04-16T13:07:08.176Z,101175.56
2023-04-16T13:09:34.898Z,101176.59
2023-04-16T13:12:01.625Z,101175.41
2023-04-16T13:14:28.269Z,101172.63
2023-04-16T13:16:54.802Z,101169.78
2023-04-16T13:19:23.727Z,101178.00
2023-04-16T13:21:50.307Z,101172.88
2023-04-16T13:24:16.980Z,101173.94
2023-04-16T13:26:43.625Z,101177.78
2023-04-16T13:29:10.461Z,101183.81
2023-04-16T13:31:38.536Z,101176.72
2023-04-16T13:34:05.348Z,101179.78
2023-04-16T13:36:34.106Z,101182.09
2023-04-16T13:39:00.691Z,101180.84
2023-04-16T13:41:27.535Z,101188.84
2023-04-16T13:43:55.425Z,101181.97
2023-04-16T13:46:22.145Z,101184.75
2023-04-16T13:48:48.764Z,101188.34
2023-04-16T13:51:16.406Z,101178.69
2023-04-16T13:53:42.979Z,101193.66
2023-04-16T13:56:10.468Z,101190.25
2023-04-16T13:58:37.056Z,101184.47
2023-04-16T14:01:03.852Z,101189.25
2023-04-16T14:03:32.452Z,101191.78
2023-04-16T14:05:59.118Z,101187.22
2023-04-16T14:08:27.913Z,101193.75
2023-04-16T14:10:55.759Z,101189.78
2023-04-16T14:13:22.683Z,101190.31
2023-04-16T14:15:49.431Z,101190.06
2023-04-16T14:18:16.127Z,101194.28
2023-04-16T14:20:44.212Z,101190.69
2023-04-16T14:23:12.441Z,101200.53
2023-04-16T14:25:39.031Z,101204.13
2023-04-16T14:28:05.740Z,101194.75
2023-04-16T14:30:32.280Z,101196.13
2023-04-16T14:32:59.030Z,101191.69
2023-04-16T14:35:25.657Z,101189.09
2023-04-16T14:37:52.380Z,101193.44
2023-04-16T14:40:19.021Z,101197.66
2023-04-16T14:42:45.865Z,101196.94
2023-04-16T14:45:12.457Z,101195.09
2023-04-16T14:47:45.782Z,101194.41
2023-04-16T14:50:12.722Z,101202.53
2023-04-16T14:52:39.737Z,101193.06
2023-04-16T14:55:06.928Z,101191.50
2023-04-16T14:57:33.479Z,101190.41
2023-04-16T15:00:00.176Z,101199.97
2023-04-16T15:02:26.987Z,101205.06
2023-04-16T15:04:54.278Z,101203.09
2023-04-16T15:07:24.150Z,101210.38
2023-04-16T15:09:51.083Z,101212.22
2023-04-16T15:12:19.082Z,101212.19
2023-04-16T15:14:46.093Z,101205.22
2023-04-16T15:17:12.676Z,101204.75
2023-04-16T15:19:39.356Z,101208.16
2023-04-16T15:22:05.870Z,101211.19
2023-04-16T15:24:32.608Z,101203.22
2023-04-16T15:26:59.124Z,101203.75
2023-04-16T15:29:25.839Z,101217.16
2023-04-16T15:31:52.391Z,101212.91
2023-04-16T15:34:18.999Z,101210.88
2023-04-16T15:36:45.628Z,101219.38
2023-04-16T15:39:12.551Z,101213.56
2023-04-16T15:41:50.203Z,101221.69
2023-04-16T15:44:26.209Z,101219.78
2023-04-16T15:46:52.742Z,101223.00
2023-04-16T15:49:19.292Z,101222.28
2023-04-16T15:51:46.294Z,101228.94
2023-04-16T15:54:13.057Z,101236.09
2023-04-16T15:56:39.678Z,101225.63
2023-04-16T15:59:06.554Z,101233.00
2023-04-16T16:01:33.133Z,101235.97
2023-04-16T16:04:07.248Z,101237.69
2023-04-16T16:06:34.180Z,101244.22
2023-04-16T16:09:00.963Z,101251.91
2023-04-16T16:11:27.808Z,101249.38
2023-04-16T16:13:54.415Z,101256.28
2023-04-16T16:16:21.887Z,101260.31
2023-04-16T16:18:48.779Z,101259.31
2023-04-16T16:21:15.337Z,101251.50
2023-04-16T16:23:42.052Z,101254.75
2023-04-16T16:26:09.517Z,101264.44
2023-04-16T16:28:39.017Z,101261.13
2023-04-16T16:31:06.108Z,101268.09
2023-04-16T16:33:33.341Z,101263.31
2023-04-16T16:35:59.974Z,101256.78
2023-04-16T16:38:27.120Z,101265.44
2023-04-16T16:40:53.757Z,101269.44
2023-04-16T16:43:20.419Z,101270.69
2023-04-16T16:45:47.239Z,101281.38
2023-04-16T16:48:13.828Z,101278.97
2023-04-16T16:50:40.608Z,101288.13
2023-04-16T16:53:07.135Z,101282.44
2023-04-16T16:55:35.590Z,101287.09
2023-04-16T16:58:02.198Z,101287.91
2023-04-16T17:00:28.982Z,101285.59
2023-04-16T17:02:55.909Z,101287.38
2023-04-16T17:05:22.721Z,101291.38
2023-04-16T17:07:49.252Z,101285.47
2023-04-16T17:10:21.660Z,101281.84
2023-04-16T17:12:48.551Z,101287.06
2023-04-16T17:15:15.582Z,101285.78
2023-04-16T17:17:42.345Z,101285.66
2023-04-16T17:20:10.755Z,101286.75
2023-04-16T17:22:37.904Z,101285.00
2023-04-16T17:25:05.196Z,101285.19
2023-04-16T17:27:34.806Z,101297.47
2023-04-16T17:30:01.924Z,101295.13
2023-04-16T17:32:29.713Z,101287.47
2023-04-16T17:34:56.376Z,101288.53
2023-04-16T17:37:23.218Z,101296.50
2023-04-16T17:39:49.933Z,101302.63
2023-04-16T17:42:16.518Z,101304.97
2023-04-16T17:44:43.198Z,101309.63
2023-04-16T17:47:09.880Z,101309.53
2023-04-16T17:49:36.454Z,101315.50
2023-04-16T17:52:03.087Z,101322.00
2023-04-16T17:54:29.725Z,101312.97
2023-04-16T17:56:57.616Z,101319.72
2023-04-16T17:59:24.168Z,101324.78
2023-04-16T18:01:51.067Z,101323.88
2023-04-16T18:04:18.036Z,101333.69
2023-04-16T18:06:45.102Z,101329.56
2023-04-16T18:09:12.163Z,101335.13
2023-04-16T18:11:38.783Z,101331.41
2023-04-16T18:14:05.410Z,101333.88
2023-04-16T18:16:34.137Z,101337.78
2023-04-16T18:19:00.648Z,101335.00
2023-04-16T18:21:27.561Z,101345.19
2023-04-16T18:23:54.145Z,101340.56
2023-04-16T18:26:22.419Z,101347.97
2023-04-16T18:28:49.550Z,101347.94
2023-04-16T18:31:20.684Z,101353.94
2023-04-16T18:33:57.470Z,101354.03
2023-04-16T18:36:27.073Z,101359.81
2023-04-16T18:39:01.564Z,101359.53
2023-04-16T18:41:29.620Z,101358.09
2023-04-16T18:43:59.302Z,101368.16
2023-04-16T18:46:27.545Z,101361.44
2023-04-16T18:48:54.347Z,101367.97
2023-04-16T18:51:21.310Z,101370.09
2023-04-16T18:53:47.841Z,101375.78
2023-04-16T18:56:14.484Z,101378.13
2023-04-16T18:58:41.065Z,101378.81
2023-04-16T19:01:11.321Z,101380.34
2023-04-16T19:03:38.456Z,101388.34
2023-04-16T19:06:06.151Z,101390.22
2023-04-16T19:08:32.762Z,101389.38
2023-04-16T19:10:59.418Z,101384.84
2023-04-16T19:13:26.063Z,101388.53
2023-04-16T19:15:57.157Z,101388.19
2023-04-16T19:18:23.799Z,101386.53
2023-04-16T19:20:51.673Z,101398.72
2023-04-16T19:23:19.133Z,101388.59
2023-04-16T19:25:45.862Z,101398.91
2023-04-16T19:28:12.437Z,101389.59
2023-04-16T19:30:40.770Z,101400.53
2023-04-16T19:33:07.368Z,101400.97
2023-04-16T19:35:35.184Z,101398.31
2023-04-16T19:38:01.796Z,101402.28
2023-04-16T19:40:28.396Z,101405.66
2023-04-16T19:42:55.063Z,101401.31
2023-04-16T19:45:25.677Z,101415.59
2023-04-16T19:47:52.425Z,101412.47
2023-04-16T19:50:19.292Z,101402.03
2023-04-16T19:52:45.962Z,101410.66
2023-04-16T19:55:12.905Z,101418.53
2023-04-16T19:57:39.488Z,101417.88
2023-04-16T20:00:11.772Z,101414.09
2023-04-16T20:02:39.260Z,101414.47
2023-04-16T20:05:05.919Z,101418.69
2023-04-16T20:07:32.563Z,101421.97
2023-04-16T20:09:59.240Z,101413.25
2023-04-16T20:12:25.974Z,101409.66
2023-04-16T20:14:52.569Z,101414.34
2023-04-16T20:17:20.207Z,101413.25
2023-04-16T20:19:51.191Z,101409.66
2023-04-16T20:22:18.857Z,101407.47
2023-04-16T20:24:47.800Z,101416.16
2023-04-16T20:27:15.428Z,101406.09
2023-04-16T20:29:42.312Z,101405.75
2023-04-16T20:32:09.025Z,101415.31
2023-04-16T20:34:36.712Z,101419.63
2023-04-16T20:37:06.020Z,101424.41
2023-04-16T20:39:40.209Z,101407.00
2023-04-16T20:42:10.440Z,101415.03
2023-04-16T20:44:40.683Z,101414.09
2023-04-16T20:47:07.609Z,101420.97
2023-04-16T20:49:38.329Z,101421.03
2023-04-16T20:52:05.606Z,101420.16
2023-04-16T20:54:32.156Z,101418.88
2023-04-16T20:56:58.957Z,101414.53
2023-04-16T20:59:26.263Z,101422.63
2023-04-16T21:01:53.006Z,101425.19
2023-04-16T21:04:19.609Z,101425.34
2023-04-16T21:06:46.780Z,101420.97
2023-04-16T21:09:13.462Z,101417.75
2023-04-16T21:11:40.414Z,101427.00
2023-04-16T21:14:07.257Z,101421.09
2023-04-16T21:16:33.911Z,101425.69
2023-04-16T21:19:00.575Z,101424.13
2023-04-16T21:21:27.599Z,101430.66
2023-04-16T21:23:54.190Z,101429.19
2023-04-16T21:26:20.961Z,101430.13
2023-04-16T21:28:50.599Z,101429.81
2023-04-16T21:31:17.253Z,101428.72
2023-04-16T21:33:43.825Z,101437.28
2023-04-16T21:36:11.985Z,101433.53
2023-04-16T21:38:38.591Z,101440.41
2023-04-16T21:41:05.166Z,101437.69
2023-04-16T21:43:33.038Z,101441.91
2023-04-16T21:45:59.818Z,101435.13
2023-04-16T21:48:27.077Z,101442.81
2023-04-16T21:51:06.181Z,101449.75
2023-04-16T21:53:33.041Z,101438.25
2023-04-16T21:55:59.658Z,101439.50
2023-04-16T21:58:26.293Z,101435.44
2023-04-16T22:00:52.953Z,101442.97
2023-04-16T22:03:19.826Z,101442.88
2023-04-16T22:05:46.600Z,101443.88
2023-04-16T22:08:23.883Z,101444.03
2023-04-16T22:10:51.264Z,101444.50
2023-04-16T22:13:17.996Z,101449.78
2023-04-16T22:15:44.634Z,101449.19
2023-04-16T22:18:12.973Z,101459.91
2023-04-16T22:20:39.904Z,101452.63
2023-04-16T22:23:06.841Z,101449.03
2023-04-16T22:25:33.750Z,101452.44
2023-04-16T22:28:01.584Z,101458.09
2023-04-16T22:30:28.350Z,101453.72
2023-04-16T22:32:55.143Z,101455.44
2023-04-16T22:35:22.116Z,101452.28
2023-04-16T22:37:48.687Z,101454.97
2023-04-16T22:40:18.560Z,101452.94
2023-04-16T22:42:45.204Z,101453.75
2023-04-16T22:45:12.660Z,101441.31
2023-04-16T22:47:39.470Z,101449.13
2023-04-16T22:50:07.525Z,101455.94
2023-04-16T22:52:34.121Z,101446.31
2023-04-16T22:55:00.681Z,101455.78
2023-04-16T22:57:27.270Z,101446.69
2023-04-16T22:59:53.841Z,101450.13
2023-04-16T23:02:22.031Z,101455.56
2023-04-16T23:04:48.700Z,101452.00
2023-04-16T23:07:15.757Z,101451.97
2023-04-16T23:09:42.752Z,101454.38
2023-04-16T23:12:09.387Z,101458.63
2023-04-16T23:14:37.033Z,101454.66
2023-04-16T23:17:05.896Z,101459.28
2023-04-16T23:19:32.437Z,101457.50
2023-04-16T23:21:59.120Z,101462.31
2023-04-16T23:24:25.700Z,101463.50
2023-04-16T23:26:52.741Z,101463.66
2023-04-16T23:29:20.327Z,101464.97
2023-04-16T23:31:47.007Z,101473.41
2023-04-16T23:34:13.630Z,101471.72
2023-04-16T23:36:40.823Z,101471.09
2023-04-16T23:39:07.415Z,101472.53
2023-04-16T23:41:34.308Z,101459.66
2023-04-16T23:44:00.922Z,101471.03
2023-04-16T23:46:27.574Z,101480.97
2023-04-16T23:48:55.263Z,101473.06
2023-04-16T23:51:22.181Z,101471.97
2023-04-16T23:53:48.779Z,101468.31
2023-04-16T23:56:16.385Z,101473.13
2023-04-16T23:58:42.918Z,101469.78
